sensor_id;sensor_type;location;lat;lon;timestamp;pressure;altitude;pressure_sealevel;temperature;humidity
71666;BME280;59503;53.486;10.196;2023-12-28T00:00:27;100717.50;;;6.14;100.00
71666;BME280;59503;53.486;10.196;2023-12-28T00:02:53;100705.41;;;6.00;100.00
71666;BME280;59503;53.486;10.196;2023-12-28T00:05:18;100711.44;;;6.17;100.00
71666;BME280;59503;53.486;10.196;2023-12-28T00:07:44;100716.84;;;6.17;100.00
71666;BME280;59503;53.486;10.196;2023-12-28T00:10:10;100707.84;;;6.25;100.00
71666;BME280;59503;53.486;10.196;2023-12-28T00:12:35;100704.94;;;6.30;100.00
71666;BME280;59503;53.486;10.196;2023-12-28T00:15:01;100706.63;;;6.35;100.00
71666;BME280;59503;53.486;10.196;2023-12-28T00:17:26;100704.72;;;6.36;100.00
71666;BME280;59503;53.486;10.196;2023-12-28T00:19:52;100708.13;;;6.45;100.00
71666;BME280;59503;53.486;10.196;2023-12-28T00:22:17;100701.63;;;6.58;100.00
71666;BME280;59503;53.486;10.196;2023-12-28T00:24:43;100701.41;;;6.63;100.00
71666;BME280;59503;53.486;10.196;2023-12-28T00:27:09;100716.47;;;6.64;100.00
71666;BME280;59503;53.486;10.196;2023-12-28T00:29:34;100717.28;;;6.64;100.00
71666;BME280;59503;53.486;10.196;2023-12-28T00:32:05;100719.28;;;6.67;100.00
71666;BME280;59503;53.486;10.196;2023-12-28T00:34:31;100720.56;;;6.70;100.00
71666;BME280;59503;53.486;10.196;2023-12-28T00:36:56;100723.81;;;6.63;100.00
71666;BME280;59503;53.486;10.196;2023-12-28T00:39:22;100719.84;;;6.61;100.00
71666;BME280;59503;53.486;10.196;2023-12-28T00:41:47;100719.94;;;6.52;100.00
71666;BME280;59503;53.486;10.196;2023-12-28T00:44:13;100734.16;;;6.61;100.00
71666;BME280;59503;53.486;10.196;2023-12-28T00:46:39;100744.63;;;6.63;100.00
71666;BME280;59503;53.486;10.196;2023-12-28T00:49:05;100746.53;;;6.62;100.00
71666;BME280;59503;53.486;10.196;2023-12-28T00:51:30;100744.38;;;6.56;100.00
71666;BME280;59503;53.486;10.196;2023-12-28T00:53:56;100740.69;;;6.60;100.00
71666;BME280;59503;53.486;10.196;2023-12-28T00:56:21;100741.00;;;6.47;100.00
71666;BME280;59503;53.486;10.196;2023-12-28T00:58:47;100746.53;;;6.50;100.00
71666;BME280;59503;53.486;10.196;2023-12-28T01:01:12;100750.91;;;6.55;100.00
71666;BME280;59503;53.486;10.196;2023-12-28T01:03:38;100752.94;;;6.58;100.00
71666;BME280;59503;53.486;10.196;2023-12-28T01:06:05;100749.78;;;6.56;100.00
71666;BME280;59503;53.486;10.196;2023-12-28T01:08:30;100735.16;;;6.57;100.00
71666;BME280;59503;53.486;10.196;2023-12-28T01:10:56;100743.69;;;6.59;100.00
71666;BME280;59503;53.486;10.196;2023-12-28T01:13:21;100751.50;;;6.60;100.00
71666;BME280;59503;53.486;10.196;2023-12-28T01:15:47;100759.25;;;6.62;100.00
71666;BME280;59503;53.486;10.196;2023-12-28T01:18:12;100756.91;;;6.60;100.00
71666;BME280;59503;53.486;10.196;2023-12-28T01:20:38;100749.91;;;6.59;100.00
71666;BME280;59503;53.486;10.196;2023-12-28T01:23:04;100752.25;;;6.61;100.00
71666;BME280;59503;53.486;10.196;2023-12-28T01:25:29;100772.97;;;6.57;100.00
71666;BME280;59503;53.486;10.196;2023-12-28T01:27:55;100768.22;;;6.54;100.00
71666;BME280;59503;53.486;10.196;2023-12-28T01:30:20;100765.75;;;6.61;100.00
71666;BME280;59503;53.486;10.196;2023-12-28T01:32:46;100753.84;;;6.62;100.00
71666;BME280;59503;53.486;10.196;2023-12-28T01:35:11;100769.81;;;6.55;100.00
71666;BME280;59503;53.486;10.196;2023-12-28T01:37:37;100776.53;;;6.49;100.00
71666;BME280;59503;53.486;10.196;2023-12-28T01:40:03;100755.84;;;6.53;100.00
71666;BME280;59503;53.486;10.196;2023-12-28T01:42:28;100772.06;;;6.53;100.00
71666;BME280;59503;53.486;10.196;2023-12-28T01:44:56;100767.91;;;6.55;100.00
71666;BME280;59503;53.486;10.196;2023-12-28T01:47:24;100780.63;;;6.55;100.00
71666;BME280;59503;53.486;10.196;2023-12-28T01:49:49;100773.41;;;6.59;100.00
71666;BME280;59503;53.486;10.196;2023-12-28T01:52:15;100788.41;;;6.68;100.00
71666;BME280;59503;53.486;10.196;2023-12-28T01:54:41;100786.25;;;6.62;100.00
71666;BME280;59503;53.486;10.196;2023-12-28T01:57:07;100781.63;;;6.62;100.00
71666;BME280;59503;53.486;10.196;2023-12-28T01:59:32;100784.66;;;6.61;100.00
71666;BME280;59503;53.486;10.196;2023-12-28T02:01:58;100784.53;;;6.57;100.00
71666;BME280;59503;53.486;10.196;2023-12-28T02:04:24;100788.50;;;6.60;100.00
71666;BME280;59503;53.486;10.196;2023-12-28T02:06:58;100795.47;;;6.61;100.00
71666;BME280;59503;53.486;10.196;2023-12-28T02:09:25;100784.13;;;6.67;100.00
71666;BME280;59503;53.486;10.196;2023-12-28T02:11:51;100789.09;;;6.77;100.00
71666;BME280;59503;53.486;10.196;2023-12-28T02:14:17;100778.19;;;6.86;100.00
71666;BME280;59503;53.486;10.196;2023-12-28T02:16:46;100792.72;;;6.81;100.00
71666;BME280;59503;53.486;10.196;2023-12-28T02:19:43;100780.91;;;6.86;100.00
71666;BME280;59503;53.486;10.196;2023-12-28T02:22:12;100782.59;;;7.02;100.00
71666;BME280;59503;53.486;10.196;2023-12-28T02:27:24;100787.69;;;7.04;100.00
71666;BME280;59503;53.486;10.196;2023-12-28T02:29:49;100793.97;;;7.08;100.00
71666;BME280;59503;53.486;10.196;2023-12-28T02:32:16;100789.13;;;7.01;100.00
71666;BME280;59503;53.486;10.196;2023-12-28T02:34:44;100793.75;;;7.01;100.00
71666;BME280;59503;53.486;10.196;2023-12-28T02:37:13;100788.91;;;7.06;100.00
71666;BME280;59503;53.486;10.196;2023-12-28T02:39:42;100786.22;;;7.06;100.00
71666;BME280;59503;53.486;10.196;2023-12-28T02:42:08;100797.69;;;7.03;100.00
71666;BME280;59503;53.486;10.196;2023-12-28T02:44:34;100782.50;;;6.99;100.00
71666;BME280;59503;53.486;10.196;2023-12-28T02:47:00;100784.63;;;6.93;100.00
71666;BME280;59503;53.486;10.196;2023-12-28T02:49:25;100791.94;;;6.93;100.00
71666;BME280;59503;53.486;10.196;2023-12-28T02:51:51;100778.78;;;6.91;100.00
71666;BME280;59503;53.486;10.196;2023-12-28T02:54:17;100794.19;;;6.91;100.00
71666;BME280;59503;53.486;10.196;2023-12-28T02:56:42;100772.91;;;6.89;100.00
71666;BME280;59503;53.486;10.196;2023-12-28T02:59:08;100788.34;;;6.89;100.00
71666;BME280;59503;53.486;10.196;2023-12-28T03:01:34;100788.13;;;6.94;100.00
71666;BME280;59503;53.486;10.196;2023-12-28T03:03:59;100786.75;;;6.88;100.00
71666;BME280;59503;53.486;10.196;2023-12-28T03:06:25;100786.75;;;6.88;100.00
71666;BME280;59503;53.486;10.196;2023-12-28T03:08:50;100794.06;;;6.87;100.00
71666;BME280;59503;53.486;10.196;2023-12-28T03:11:16;100794.63;;;6.81;100.00
71666;BME280;59503;53.486;10.196;2023-12-28T03:13:41;100795.28;;;6.78;100.00
71666;BME280;59503;53.486;10.196;2023-12-28T03:16:07;100788.09;;;6.82;100.00
71666;BME280;59503;53.486;10.196;2023-12-28T03:18:33;100792.72;;;6.81;100.00
71666;BME280;59503;53.486;10.196;2023-12-28T03:20:59;100794.94;;;6.79;100.00
71666;BME280;59503;53.486;10.196;2023-12-28T03:23:25;100802.03;;;6.72;100.00
71666;BME280;59503;53.486;10.196;2023-12-28T03:25:50;100795.97;;;6.75;100.00
71666;BME280;59503;53.486;10.196;2023-12-28T03:28:16;100790.56;;;6.75;100.00
71666;BME280;59503;53.486;10.196;2023-12-28T03:30:42;100785.97;;;6.75;100.00
71666;BME280;59503;53.486;10.196;2023-12-28T03:33:07;100797.53;;;6.76;100.00
71666;BME280;59503;53.486;10.196;2023-12-28T03:35:33;100772.53;;;6.67;100.00
71666;BME280;59503;53.486;10.196;2023-12-28T03:37:58;100783.78;;;6.69;100.00
71666;BME280;59503;53.486;10.196;2023-12-28T03:40:25;100788.06;;;6.70;100.00
71666;BME280;59503;53.486;10.196;2023-12-28T03:42:50;100783.47;;;6.70;100.00
71666;BME280;59503;53.486;10.196;2023-12-28T03:45:16;100799.09;;;6.65;100.00
71666;BME280;59503;53.486;10.196;2023-12-28T03:47:42;100807.88;;;6.62;100.00
71666;BME280;59503;53.486;10.196;2023-12-28T03:50:08;100806.03;;;6.54;100.00
71666;BME280;59503;53.486;10.196;2023-12-28T03:52:33;100802.91;;;6.64;100.00
71666;BME280;59503;53.486;10.196;2023-12-28T03:54:59;100796.41;;;6.65;100.00
71666;BME280;59503;53.486;10.196;2023-12-28T03:57:25;100806.88;;;6.66;100.00
71666;BME280;59503;53.486;10.196;2023-12-28T03:59:51;100805.38;;;6.57;100.00
71666;BME280;59503;53.486;10.196;2023-12-28T04:02:17;100803.25;;;6.62;100.00
71666;BME280;59503;53.486;10.196;2023-12-28T04:04:42;100803.44;;;6.57;100.00
71666;BME280;59503;53.486;10.196;2023-12-28T04:07:08;100813.03;;;6.55;100.00
71666;BME280;59503;53.486;10.196;2023-12-28T04:09:34;100803.78;;;6.56;100.00
71666;BME280;59503;53.486;10.196;2023-12-28T04:11:59;100795.22;;;6.54;100.00
71666;BME280;59503;53.486;10.196;2023-12-28T04:14:25;100804.47;;;6.53;100.00
71666;BME280;59503;53.486;10.196;2023-12-28T04:16:51;100800.53;;;6.50;100.00
71666;BME280;59503;53.486;10.196;2023-12-28T04:19:16;100800.81;;;6.49;100.00
71666;BME280;59503;53.486;10.196;2023-12-28T04:21:45;100798.59;;;6.51;100.00
71666;BME280;59503;53.486;10.196;2023-12-28T04:24:11;100792.09;;;6.52;100.00
71666;BME280;59503;53.486;10.196;2023-12-28T04:26:36;100799.00;;;6.41;100.00
71666;BME280;59503;53.486;10.196;2023-12-28T04:29:02;100795.50;;;6.40;100.00
71666;BME280;59503;53.486;10.196;2023-12-28T04:31:28;100790.56;;;6.42;100.00
71666;BME280;59503;53.486;10.196;2023-12-28T04:33:53;100798.34;;;6.44;100.00
71666;BME280;59503;53.486;10.196;2023-12-28T04:36:19;100802.63;;;6.45;100.00
71666;BME280;59503;53.486;10.196;2023-12-28T04:38:44;100802.16;;;6.43;100.00
71666;BME280;59503;53.486;10.196;2023-12-28T04:41:10;100797.91;;;6.42;100.00
71666;BME280;59503;53.486;10.196;2023-12-28T04:43:37;100803.09;;;6.47;100.00
71666;BME280;59503;53.486;10.196;2023-12-28T04:46:04;100787.03;;;6.50;100.00
71666;BME280;59503;53.486;10.196;2023-12-28T04:48:30;100786.00;;;6.55;100.00
71666;BME280;59503;53.486;10.196;2023-12-28T04:50:55;100780.03;;;6.49;100.00
71666;BME280;59503;53.486;10.196;2023-12-28T04:53:21;100781.84;;;6.45;100.00
71666;BME280;59503;53.486;10.196;2023-12-28T04:55:47;100777.66;;;6.48;100.00
71666;BME280;59503;53.486;10.196;2023-12-28T04:58:12;100785.75;;;6.48;100.00
71666;BME280;59503;53.486;10.196;2023-12-28T05:00:38;100786.25;;;6.62;100.00
71666;BME280;59503;53.486;10.196;2023-12-28T05:03:04;100786.47;;;6.69;100.00
71666;BME280;59503;53.486;10.196;2023-12-28T05:05:30;100791.38;;;6.75;100.00
71666;BME280;59503;53.486;10.196;2023-12-28T05:07:55;100801.25;;;6.71;100.00
71666;BME280;59503;53.486;10.196;2023-12-28T05:10:21;100796.41;;;6.65;100.00
71666;BME280;59503;53.486;10.196;2023-12-28T05:12:47;100801.13;;;6.68;100.00
71666;BME280;59503;53.486;10.196;2023-12-28T05:15:12;100810.59;;;6.74;100.00
71666;BME280;59503;53.486;10.196;2023-12-28T05:17:38;100805.84;;;6.71;100.00
71666;BME280;59503;53.486;10.196;2023-12-28T05:20:03;100805.59;;;6.64;100.00
71666;BME280;59503;53.486;10.196;2023-12-28T05:22:29;100806.88;;;6.66;100.00
71666;BME280;59503;53.486;10.196;2023-12-28T05:24:55;100812.94;;;6.63;100.00
71666;BME280;59503;53.486;10.196;2023-12-28T05:27:20;100810.59;;;6.74;100.00
71666;BME280;59503;53.486;10.196;2023-12-28T05:29:46;100796.41;;;6.65;100.00
71666;BME280;59503;53.486;10.196;2023-12-28T05:32:11;100791.47;;;6.67;100.00
71666;BME280;59503;53.486;10.196;2023-12-28T05:34:37;100805.31;;;6.77;100.00
71666;BME280;59503;53.486;10.196;2023-12-28T05:37:02;100802.03;;;6.72;100.00
71666;BME280;59503;53.486;10.196;2023-12-28T05:39:28;100798.88;;;6.70;100.00
71666;BME280;59503;53.486;10.196;2023-12-28T05:41:53;100804.06;;;6.75;100.00
71666;BME280;59503;53.486;10.196;2023-12-28T05:44:19;100819.81;;;6.73;100.00
71666;BME280;59503;53.486;10.196;2023-12-28T05:46:46;100811.75;;;6.85;100.00
71666;BME280;59503;53.486;10.196;2023-12-28T05:49:11;100811.63;;;6.81;100.00
71666;BME280;59503;53.486;10.196;2023-12-28T05:51:40;100798.66;;;6.75;100.00
71666;BME280;59503;53.486;10.196;2023-12-28T05:54:07;100791.56;;;6.82;100.00
71666;BME280;59503;53.486;10.196;2023-12-28T05:56:33;100799.47;;;6.87;100.00
71666;BME280;59503;53.486;10.196;2023-12-28T05:58:58;100805.13;;;6.94;100.00
71666;BME280;59503;53.486;10.196;2023-12-28T06:01:24;100810.41;;;6.91;100.00
71666;BME280;59503;53.486;10.196;2023-12-28T06:03:49;100813.31;;;6.86;100.00
71666;BME280;59503;53.486;10.196;2023-12-28T06:06:18;100812.34;;;6.90;100.00
71666;BME280;59503;53.486;10.196;2023-12-28T06:08:44;100814.22;;;6.90;100.00
71666;BME280;59503;53.486;10.196;2023-12-28T06:11:09;100817.41;;;6.92;100.00
71666;BME280;59503;53.486;10.196;2023-12-28T06:13:35;100818.50;;;6.91;100.00
71666;BME280;59503;53.486;10.196;2023-12-28T06:16:01;100813.31;;;6.86;100.00
71666;BME280;59503;53.486;10.196;2023-12-28T06:18:26;100815.03;;;6.90;100.00
71666;BME280;59503;53.486;10.196;2023-12-28T06:20:52;100815.72;;;7.11;100.00
71666;BME280;59503;53.486;10.196;2023-12-28T06:23:17;100819.00;;;7.17;100.00
71666;BME280;59503;53.486;10.196;2023-12-28T06:25:43;100818.09;;;7.25;100.00
71666;BME280;59503;53.486;10.196;2023-12-28T06:28:08;100809.53;;;7.35;100.00
71666;BME280;59503;53.486;10.196;2023-12-28T06:30:34;100804.38;;;7.42;100.00
71666;BME280;59503;53.486;10.196;2023-12-28T06:32:59;100806.84;;;7.47;100.00
71666;BME280;59503;53.486;10.196;2023-12-28T06:35:25;100814.72;;;7.52;100.00
71666;BME280;59503;53.486;10.196;2023-12-28T06:37:50;100805.47;;;7.53;100.00
71666;BME280;59503;53.486;10.196;2023-12-28T06:40:16;100797.34;;;7.65;100.00
71666;BME280;59503;53.486;10.196;2023-12-28T06:42:42;100807.25;;;7.73;100.00
71666;BME280;59503;53.486;10.196;2023-12-28T06:45:09;100795.06;;;7.91;100.00
71666;BME280;59503;53.486;10.196;2023-12-28T06:47:35;100803.50;;;7.90;100.00
71666;BME280;59503;53.486;10.196;2023-12-28T06:50:01;100799.56;;;7.87;100.00
71666;BME280;59503;53.486;10.196;2023-12-28T06:52:26;100802.03;;;7.92;100.00
71666;BME280;59503;53.486;10.196;2023-12-28T06:54:52;100804.50;;;7.97;100.00
71666;BME280;59503;53.486;10.196;2023-12-28T06:57:18;100791.53;;;8.03;100.00
71666;BME280;59503;53.486;10.196;2023-12-28T06:59:44;100795.34;;;8.02;100.00
71666;BME280;59503;53.486;10.196;2023-12-28T07:02:09;100783.06;;;8.04;100.00
71666;BME280;59503;53.486;10.196;2023-12-28T07:04:35;100787.88;;;8.11;100.00
71666;BME280;59503;53.486;10.196;2023-12-28T07:07:00;100790.84;;;8.06;100.00
71666;BME280;59503;53.486;10.196;2023-12-28T07:09:26;100800.59;;;8.22;100.00
71666;BME280;59503;53.486;10.196;2023-12-28T07:11:52;100795.88;;;8.19;100.00
71666;BME280;59503;53.486;10.196;2023-12-28T07:14:17;100797.31;;;8.29;100.00
71666;BME280;59503;53.486;10.196;2023-12-28T07:16:43;100800.59;;;8.22;100.00
71666;BME280;59503;53.486;10.196;2023-12-28T07:19:08;100807.81;;;8.30;100.00
71666;BME280;59503;53.486;10.196;2023-12-28T07:21:34;100805.53;;;8.32;100.00
71666;BME280;59503;53.486;10.196;2023-12-28T07:24:00;100779.34;;;8.36;100.00
71666;BME280;59503;53.486;10.196;2023-12-28T07:26:25;100775.06;;;8.35;100.00
71666;BME280;59503;53.486;10.196;2023-12-28T07:28:50;100782.25;;;8.43;100.00
71666;BME280;59503;53.486;10.196;2023-12-28T07:31:26;100780.13;;;8.37;100.00
71666;BME280;59503;53.486;10.196;2023-12-28T07:33:52;100787.19;;;8.26;100.00
71666;BME280;59503;53.486;10.196;2023-12-28T07:36:19;100786.59;;;8.20;100.00
71666;BME280;59503;53.486;10.196;2023-12-28T07:38:45;100780.84;;;8.22;100.00
71666;BME280;59503;53.486;10.196;2023-12-28T07:41:11;100788.84;;;8.18;100.00
71666;BME280;59503;53.486;10.196;2023-12-28T07:43:37;100788.66;;;8.23;100.00
71666;BME280;59503;53.486;10.196;2023-12-28T07:46:03;100788.09;;;8.18;100.00
71666;BME280;59503;53.486;10.196;2023-12-28T07:48:29;100764.38;;;8.27;100.00
71666;BME280;59503;53.486;10.196;2023-12-28T07:50:58;100770.28;;;8.44;100.00
71666;BME280;59503;53.486;10.196;2023-12-28T07:53:24;100785.66;;;8.40;100.00
71666;BME280;59503;53.486;10.196;2023-12-28T07:55:49;100791.16;;;8.44;100.00
71666;BME280;59503;53.486;10.196;2023-12-28T07:58:15;100784.28;;;8.46;100.00
71666;BME280;59503;53.486;10.196;2023-12-28T08:00:41;100787.91;;;8.38;100.00
71666;BME280;59503;53.486;10.196;2023-12-28T08:03:07;100777.53;;;8.40;100.00
71666;BME280;59503;53.486;10.196;2023-12-28T08:05:32;100788.81;;;8.42;100.00
71666;BME280;59503;53.486;10.196;2023-12-28T08:07:58;100789.88;;;8.53;100.00
71666;BME280;59503;53.486;10.196;2023-12-28T08:10:23;100790.56;;;8.50;100.00
71666;BME280;59503;53.486;10.196;2023-12-28T08:12:49;100792.91;;;8.36;100.00
71666;BME280;59503;53.486;10.196;2023-12-28T08:15:14;100786.78;;;8.39;100.00
71666;BME280;59503;53.486;10.196;2023-12-28T08:17:40;100795.78;;;8.43;100.00
71666;BME280;59503;53.486;10.196;2023-12-28T08:20:06;100794.88;;;8.51;100.00
71666;BME280;59503;53.486;10.196;2023-12-28T08:22:32;100788.28;;;8.52;100.00
71666;BME280;59503;53.486;10.196;2023-12-28T08:24:57;100785.44;;;8.61;100.00
71666;BME280;59503;53.486;10.196;2023-12-28T08:27:23;100790.59;;;8.66;100.00
71666;BME280;59503;53.486;10.196;2023-12-28T08:29:49;100773.81;;;8.76;100.00
71666;BME280;59503;53.486;10.196;2023-12-28T08:32:15;100784.75;;;8.79;100.00
71666;BME280;59503;53.486;10.196;2023-12-28T08:34:40;100772.78;;;8.80;100.00
71666;BME280;59503;53.486;10.196;2023-12-28T08:37:06;100776.47;;;8.88;100.00
71666;BME280;59503;53.486;10.196;2023-12-28T08:39:32;100776.66;;;8.95;100.00
71666;BME280;59503;53.486;10.196;2023-12-28T08:41:57;100771.31;;;8.99;100.00
71666;BME280;59503;53.486;10.196;2023-12-28T08:44:23;100769.47;;;9.03;100.00
71666;BME280;59503;53.486;10.196;2023-12-28T08:46:48;100764.84;;;9.03;100.00
71666;BME280;59503;53.486;10.196;2023-12-28T08:49:14;100761.69;;;9.01;100.00
71666;BME280;59503;53.486;10.196;2023-12-28T08:51:41;100764.84;;;9.03;100.00
71666;BME280;59503;53.486;10.196;2023-12-28T08:54:07;100759.31;;;9.15;100.00
71666;BME280;59503;53.486;10.196;2023-12-28T08:56:34;100762.66;;;9.09;100.00
71666;BME280;59503;53.486;10.196;2023-12-28T08:59:00;100766.13;;;9.25;100.00
71666;BME280;59503;53.486;10.196;2023-12-28T09:01:26;100762.69;;;9.28;100.00
71666;BME280;59503;53.486;10.196;2023-12-28T09:03:52;100775.81;;;9.26;100.00
71666;BME280;59503;53.486;10.196;2023-12-28T09:06:19;100770.06;;;9.27;100.00
71666;BME280;59503;53.486;10.196;2023-12-28T09:08:51;100779.41;;;9.30;100.00
71666;BME280;59503;53.486;10.196;2023-12-28T09:11:18;100773.91;;;9.42;100.00
71666;BME280;59503;53.486;10.196;2023-12-28T09:13:45;100769.59;;;9.41;100.00
71666;BME280;59503;53.486;10.196;2023-12-28T09:16:12;100757.69;;;9.45;100.00
71666;BME280;59503;53.486;10.196;2023-12-28T09:18:38;100767.56;;;9.53;100.00
71666;BME280;59503;53.486;10.196;2023-12-28T09:21:05;100766.19;;;9.44;100.00
71666;BME280;59503;53.486;10.196;2023-12-28T09:23:32;100777.91;;;9.48;100.00
71666;BME280;59503;53.486;10.196;2023-12-28T09:25:59;100765.91;;;9.49;100.00
71666;BME280;59503;53.486;10.196;2023-12-28T09:28:25;100774.16;;;9.52;100.00
71666;BME280;59503;53.486;10.196;2023-12-28T09:30:50;100774.06;;;9.49;100.00
71666;BME280;59503;53.486;10.196;2023-12-28T09:33:16;100780.41;;;9.56;100.00
71666;BME280;59503;53.486;10.196;2023-12-28T09:35:42;100774.00;;;9.64;100.00
71666;BME280;59503;53.486;10.196;2023-12-28T09:38:07;100765.59;;;9.69;100.00
71666;BME280;59503;53.486;10.196;2023-12-28T09:40:35;100782.91;;;9.80;100.00
71666;BME280;59503;53.486;10.196;2023-12-28T09:45:38;100792.13;;;9.95;100.00
71666;BME280;59503;53.486;10.196;2023-12-28T09:48:05;100782.50;;;9.97;100.00
71666;BME280;59503;53.486;10.196;2023-12-28T09:50:32;100779.72;;;9.94;100.00
71666;BME280;59503;53.486;10.196;2023-12-28T09:52:58;100766.97;;;9.98;100.00
71666;BME280;59503;53.486;10.196;2023-12-28T09:55:24;100778.72;;;10.02;100.00
71666;BME280;59503;53.486;10.196;2023-12-28T09:57:51;100770.56;;;10.02;100.00
71666;BME280;59503;53.486;10.196;2023-12-28T10:00:16;100772.84;;;10.00;100.00
71666;BME280;59503;53.486;10.196;2023-12-28T10:02:44;100766.28;;;10.01;100.00
71666;BME280;59503;53.486;10.196;2023-12-28T10:05:13;100739.06;;;9.97;100.00
71666;BME280;59503;53.486;10.196;2023-12-28T10:07:43;100756.09;;;9.98;100.00
71666;BME280;59503;53.486;10.196;2023-12-28T10:10:09;100752.34;;;10.02;100.00
71666;BME280;59503;53.486;10.196;2023-12-28T10:12:36;100752.72;;;10.01;100.00
71666;BME280;59503;53.486;10.196;2023-12-28T10:15:02;100759.06;;;9.89;100.00
71666;BME280;59503;53.486;10.196;2023-12-28T10:17:28;100750.47;;;9.87;100.00
71666;BME280;59503;53.486;10.196;2023-12-28T10:19:53;100754.31;;;9.86;100.00
71666;BME280;59503;53.486;10.196;2023-12-28T10:22:21;100738.81;;;9.87;100.00
71666;BME280;59503;53.486;10.196;2023-12-28T10:24:47;100744.63;;;9.85;100.00
71666;BME280;59503;53.486;10.196;2023-12-28T10:27:15;100759.84;;;9.90;100.00
71666;BME280;59503;53.486;10.196;2023-12-28T10:29:42;100751.13;;;9.81;100.00
71666;BME280;59503;53.486;10.196;2023-12-28T10:32:07;100759.91;;;9.93;100.00
71666;BME280;59503;53.486;10.196;2023-12-28T10:34:33;100753.53;;;10.05;100.00
71666;BME280;59503;53.486;10.196;2023-12-28T10:36:59;100759.69;;;10.02;100.00
71666;BME280;59503;53.486;10.196;2023-12-28T10:39:25;100756.91;;;9.98;100.00
71666;BME280;59503;53.486;10.196;2023-12-28T10:41:54;100764.97;;;9.95;100.00
71666;BME280;59503;53.486;10.196;2023-12-28T10:44:23;100753.53;;;10.05;100.00
71666;BME280;59503;53.486;10.196;2023-12-28T10:46:57;100762.59;;;10.09;100.00
71666;BME280;59503;53.486;10.196;2023-12-28T10:49:25;100759.78;;;10.05;100.00
71666;BME280;59503;53.486;10.196;2023-12-28T10:51:52;100771.00;;;10.04;100.00
71666;BME280;59503;53.486;10.196;2023-12-28T10:57:19;100763.06;;;9.95;100.00
71666;BME280;59503;53.486;10.196;2023-12-28T11:00:09;100750.34;;;9.99;100.00
71666;BME280;59503;53.486;10.196;2023-12-28T11:02:44;100763.28;;;10.06;100.00
71666;BME280;59503;53.486;10.196;2023-12-28T11:05:12;100762.59;;;10.09;100.00
71666;BME280;59503;53.486;10.196;2023-12-28T11:07:39;100761.53;;;9.98;100.00
71666;BME280;59503;53.486;10.196;2023-12-28T11:10:06;100761.34;;;10.06;100.00
71666;BME280;59503;53.486;10.196;2023-12-28T11:12:33;100777.28;;;10.08;100.00
71666;BME280;59503;53.486;10.196;2023-12-28T11:14:59;100761.44;;;10.10;100.00
71666;BME280;59503;53.486;10.196;2023-12-28T11:17:27;100766.94;;;10.14;100.00
71666;BME280;59503;53.486;10.196;2023-12-28T11:19:53;100751.94;;;10.20;100.00
71666;BME280;59503;53.486;10.196;2023-12-28T11:22:21;100762.31;;;10.33;100.00
71666;BME280;59503;53.486;10.196;2023-12-28T11:24:48;100760.50;;;10.41;100.00
71666;BME280;59503;53.486;10.196;2023-12-28T11:27:13;100764.00;;;10.41;100.00
71666;BME280;59503;53.486;10.196;2023-12-28T11:29:41;100747.28;;;10.39;100.00
71666;BME280;59503;53.486;10.196;2023-12-28T11:32:09;100758.56;;;10.41;100.00
71666;BME280;59503;53.486;10.196;2023-12-28T11:34:35;100758.13;;;10.39;100.00
71666;BME280;59503;53.486;10.196;2023-12-28T11:37:04;100761.59;;;10.36;100.00
71666;BME280;59503;53.486;10.196;2023-12-28T11:39:32;100760.00;;;10.35;100.00
71666;BME280;59503;53.486;10.196;2023-12-28T11:42:03;100752.19;;;10.34;100.00
71666;BME280;59503;53.486;10.196;2023-12-28T11:44:29;100749.41;;;10.49;100.00
71666;BME280;59503;53.486;10.196;2023-12-28T11:46:55;100760.63;;;10.48;100.00
71666;BME280;59503;53.486;10.196;2023-12-28T11:49:27;100769.28;;;10.53;100.00
71666;BME280;59503;53.486;10.196;2023-12-28T11:51:57;100754.75;;;10.46;100.00
71666;BME280;59503;53.486;10.196;2023-12-28T11:54:24;100760.06;;;10.39;100.00
71666;BME280;59503;53.486;10.196;2023-12-28T11:56:50;100758.13;;;10.39;100.00
71666;BME280;59503;53.486;10.196;2023-12-28T11:59:16;100754.69;;;10.42;100.00
71666;BME280;59503;53.486;10.196;2023-12-28T12:01:42;100757.78;;;10.41;100.00
71666;BME280;59503;53.486;10.196;2023-12-28T12:04:07;100753.06;;;10.38;100.00
71666;BME280;59503;53.486;10.196;2023-12-28T12:06:33;100756.56;;;10.38;100.00
71666;BME280;59503;53.486;10.196;2023-12-28T12:08:58;100741.41;;;10.37;100.00
71666;BME280;59503;53.486;10.196;2023-12-28T12:11:24;100750.00;;;10.39;100.00
71666;BME280;59503;53.486;10.196;2023-12-28T12:13:51;100743.69;;;10.35;100.00
71666;BME280;59503;53.486;10.196;2023-12-28T12:16:18;100753.00;;;10.34;100.00
71666;BME280;59503;53.486;10.196;2023-12-28T12:18:44;100756.56;;;10.38;100.00
71666;BME280;59503;53.486;10.196;2023-12-28T12:21:09;100746.00;;;10.33;100.00
71666;BME280;59503;53.486;10.196;2023-12-28T12:23:35;100749.13;;;10.35;100.00
71666;BME280;59503;53.486;10.196;2023-12-28T12:26:05;100735.13;;;10.33;100.00
71666;BME280;59503;53.486;10.196;2023-12-28T12:28:31;100752.19;;;10.34;100.00
71666;BME280;59503;53.486;10.196;2023-12-28T12:30:57;100752.19;;;10.34;100.00
71666;BME280;59503;53.486;10.196;2023-12-28T12:33:27;100752.28;;;10.37;100.00
71666;BME280;59503;53.486;10.196;2023-12-28T12:35:53;100741.84;;;10.39;100.00
71666;BME280;59503;53.486;10.196;2023-12-28T12:38:19;100732.97;;;10.42;100.00
71666;BME280;59503;53.486;10.196;2023-12-28T12:40:44;100738.81;;;10.44;100.00